sensor_id;sensor_type;location;lat;lon;timestamp;pressure;altitude;pressure_sealevel;temperature;humidity
44103;BME280;29769;42.178;24.742;2023-06-14T00:01:30;99227.72;;;20.17;100.00
44103;BME280;29769;42.178;24.742;2023-06-14T00:04:16;99231.53;;;20.13;100.00
44103;BME280;29769;42.178;24.742;2023-06-14T00:07:01;99240.97;;;20.05;100.00
44103;BME280;29769;42.178;24.742;2023-06-14T00:09:46;99237.63;;;19.87;100.00
44103;BME280;29769;42.178;24.742;2023-06-14T00:12:30;99238.41;;;19.89;100.00
44103;BME280;29769;42.178;24.742;2023-06-14T00:15:15;99234.28;;;19.83;100.00
44103;BME280;29769;42.178;24.742;2023-06-14T00:18:01;99238.75;;;19.83;100.00
44103;BME280;29769;42.178;24.742;2023-06-14T00:20:45;99236.75;;;19.86;100.00
44103;BME280;29769;42.178;24.742;2023-06-14T00:23:30;99240.22;;;19.88;100.00
44103;BME280;29769;42.178;24.742;2023-06-14T00:26:15;99236.41;;;19.92;100.00
44103;BME280;29769;42.178;24.742;2023-06-14T00:29:01;99235.25;;;19.96;100.00
44103;BME280;29769;42.178;24.742;2023-06-14T00:31:45;99232.22;;;20.03;100.00
44103;BME280;29769;42.178;24.742;2023-06-14T00:34:30;99233.63;;;20.08;100.00
44103;BME280;29769;42.178;24.742;2023-06-14T00:37:14;99224.03;;;20.06;100.00
44103;BME280;29769;42.178;24.742;2023-06-14T00:40:00;99233.09;;;20.03;100.00
44103;BME280;29769;42.178;24.742;2023-06-14T00:42:45;99224.50;;;20.12;100.00
44103;BME280;29769;42.178;24.742;2023-06-14T00:45:30;99222.97;;;20.08;100.00
44103;BME280;29769;42.178;24.742;2023-06-14T00:48:15;99222.00;;;20.09;100.00
44103;BME280;29769;42.178;24.742;2023-06-14T00:51:01;99222.88;;;20.10;100.00
44103;BME280;29769;42.178;24.742;2023-06-14T00:53:48;99215.16;;;20.05;100.00
44103;BME280;29769;42.178;24.742;2023-06-14T00:56:38;99212.19;;;20.10;100.00
44103;BME280;29769;42.178;24.742;2023-06-14T00:59:22;99208.38;;;20.14;100.00
44103;BME280;29769;42.178;24.742;2023-06-14T01:02:07;99210.09;;;20.15;100.00
44103;BME280;29769;42.178;24.742;2023-06-14T01:04:55;99209.81;;;20.19;100.00
44103;BME280;29769;42.178;24.742;2023-06-14T01:16:06;99214.00;;;20.09;100.00
44103;BME280;29769;42.178;24.742;2023-06-14T01:18:52;99209.44;;;20.11;100.00
44103;BME280;29769;42.178;24.742;2023-06-14T01:21:40;99214.94;;;20.08;100.00
44103;BME280;29769;42.178;24.742;2023-06-14T01:24:26;99208.09;;;20.04;100.00
44103;BME280;29769;42.178;24.742;2023-06-14T01:27:16;99203.59;;;20.05;100.00
44103;BME280;29769;42.178;24.742;2023-06-14T01:30:01;99208.25;;;19.87;100.00
44103;BME280;29769;42.178;24.742;2023-06-14T01:32:47;99208.34;;;19.85;100.00
44103;BME280;29769;42.178;24.742;2023-06-14T01:35:33;99209.13;;;19.87;100.00
44103;BME280;29769;42.178;24.742;2023-06-14T01:38:25;99213.00;;;19.82;100.00
44103;BME280;29769;42.178;24.742;2023-06-14T01:41:09;99211.13;;;19.84;100.00
44103;BME280;29769;42.178;24.742;2023-06-14T01:43:54;99209.97;;;19.74;100.00
44103;BME280;29769;42.178;24.742;2023-06-14T01:46:39;99202.97;;;19.41;100.00
44103;BME280;29769;42.178;24.742;2023-06-14T01:49:25;99203.72;;;19.14;100.00
44103;BME280;29769;42.178;24.742;2023-06-14T01:52:11;99211.63;;;19.15;100.00
44103;BME280;29769;42.178;24.742;2023-06-14T01:54:56;99198.56;;;19.10;100.00
44103;BME280;29769;42.178;24.742;2023-06-14T01:57:42;99203.31;;;19.05;100.00
44103;BME280;29769;42.178;24.742;2023-06-14T02:00:28;99204.09;;;19.07;100.00
44103;BME280;29769;42.178;24.742;2023-06-14T02:03:14;99208.63;;;19.05;100.00
44103;BME280;29769;42.178;24.742;2023-06-14T02:05:59;99206.56;;;19.10;100.00
44103;BME280;29769;42.178;24.742;2023-06-14T02:08:44;99211.44;;;19.18;100.00
44103;BME280;29769;42.178;24.742;2023-06-14T02:11:29;99204.72;;;19.27;100.00
44103;BME280;29769;42.178;24.742;2023-06-14T02:14:14;99210.56;;;19.33;100.00
44103;BME280;29769;42.178;24.742;2023-06-14T02:16:59;99209.63;;;19.34;100.00
44103;BME280;29769;42.178;24.742;2023-06-14T02:19:45;99210.50;;;19.35;100.00
44103;BME280;29769;42.178;24.742;2023-06-14T02:22:30;99207.03;;;19.33;100.00
44103;BME280;29769;42.178;24.742;2023-06-14T02:25:14;99206.97;;;19.34;100.00
44103;BME280;29769;42.178;24.742;2023-06-14T02:27:59;99209.13;;;19.28;100.00
44103;BME280;29769;42.178;24.742;2023-06-14T02:30:43;99213.69;;;19.26;100.00
44103;BME280;29769;42.178;24.742;2023-06-14T02:33:28;99218.50;;;19.19;100.00
44103;BME280;29769;42.178;24.742;2023-06-14T02:36:13;99218.31;;;19.22;100.00
44103;BME280;29769;42.178;24.742;2023-06-14T02:38:57;99224.78;;;19.18;100.00
44103;BME280;29769;42.178;24.742;2023-06-14T02:41:42;99219.28;;;19.21;100.00
44103;BME280;29769;42.178;24.742;2023-06-14T02:44:27;99213.84;;;19.23;100.00
44103;BME280;29769;42.178;24.742;2023-06-14T02:47:12;99219.09;;;19.24;100.00
44103;BME280;29769;42.178;24.742;2023-06-14T02:49:56;99214.13;;;19.18;100.00
44103;BME280;29769;42.178;24.742;2023-06-14T02:52:41;99218.69;;;19.16;100.00
44103;BME280;29769;42.178;24.742;2023-06-14T02:55:28;99218.78;;;19.15;100.00
44103;BME280;29769;42.178;24.742;2023-06-14T02:58:13;99221.44;;;19.15;100.00
44103;BME280;29769;42.178;24.742;2023-06-14T03:00:58;99216.09;;;19.15;100.00
44103;BME280;29769;42.178;24.742;2023-06-14T03:03:48;99227.81;;;19.12;100.00
44103;BME280;29769;42.178;24.742;2023-06-14T03:06:33;99238.63;;;19.09;100.00
44103;BME280;29769;42.178;24.742;2023-06-14T03:09:19;99235.47;;;19.02;100.00
44103;BME280;29769;42.178;24.742;2023-06-14T03:12:05;99240.09;;;18.99;100.00
44103;BME280;29769;42.178;24.742;2023-06-14T03:14:52;99236.06;;;18.92;100.00
44103;BME280;29769;42.178;24.742;2023-06-14T03:17:40;99238.81;;;18.90;100.00
44103;BME280;29769;42.178;24.742;2023-06-14T03:20:26;99244.06;;;18.92;100.00
44103;BME280;29769;42.178;24.742;2023-06-14T03:23:14;99246.66;;;18.93;100.00
44103;BME280;29769;42.178;24.742;2023-06-14T03:25:59;99244.34;;;18.87;100.00
44103;BME280;29769;42.178;24.742;2023-06-14T03:28:44;99246.72;;;18.60;100.00
44103;BME280;29769;42.178;24.742;2023-06-14T03:31:34;99249.38;;;18.28;100.00
44103;BME280;29769;42.178;24.742;2023-06-14T03:34:21;99257.47;;;18.09;100.00
44103;BME280;29769;42.178;24.742;2023-06-14T03:37:06;99258.69;;;18.03;100.00
44103;BME280;29769;42.178;24.742;2023-06-14T03:39:52;99260.94;;;18.11;100.00
44103;BME280;29769;42.178;24.742;2023-06-14T03:42:40;99255.13;;;18.20;100.00
44103;BME280;29769;42.178;24.742;2023-06-14T03:45:25;99266.88;;;18.16;100.00
44103;BME280;29769;42.178;24.742;2023-06-14T03:48:11;99276.97;;;18.09;100.00
44103;BME280;29769;42.178;24.742;2023-06-14T03:50:55;99277.84;;;18.10;100.00
44103;BME280;29769;42.178;24.742;2023-06-14T03:53:40;99290.41;;;18.23;100.00
44103;BME280;29769;42.178;24.742;2023-06-14T03:56:24;99292.91;;;18.27;100.00
44103;BME280;29769;42.178;24.742;2023-06-14T03:59:10;99282.56;;;18.38;100.00
44103;BME280;29769;42.178;24.742;2023-06-14T04:01:54;99282.63;;;18.53;100.00
44103;BME280;29769;42.178;24.742;2023-06-14T04:04:39;99279.66;;;18.75;100.00
44103;BME280;29769;42.178;24.742;2023-06-14T04:07:28;99284.66;;;18.97;100.00
44103;BME280;29769;42.178;24.742;2023-06-14T04:10:13;99282.69;;;19.16;100.00
44103;BME280;29769;42.178;24.742;2023-06-14T04:12:57;99286.00;;;19.35;100.00
44103;BME280;29769;42.178;24.742;2023-06-14T04:15:42;99293.44;;;19.46;100.00
44103;BME280;29769;42.178;24.742;2023-06-14T04:18:31;99294.09;;;19.65;100.00
44103;BME280;29769;42.178;24.742;2023-06-14T04:21:15;99292.13;;;19.83;100.00
44103;BME280;29769;42.178;24.742;2023-06-14T04:23:59;99294.84;;;19.97;100.00
44103;BME280;29769;42.178;24.742;2023-06-14T04:26:48;99292.09;;;19.98;100.00
44103;BME280;29769;42.178;24.742;2023-06-14T04:29:35;99293.41;;;19.91;100.00
44103;BME280;29769;42.178;24.742;2023-06-14T04:32:24;99298.47;;;19.96;100.00
44103;BME280;29769;42.178;24.742;2023-06-14T04:35:11;99300.66;;;20.04;100.00
44103;BME280;29769;42.178;24.742;2023-06-14T04:37:58;99302.22;;;20.08;100.00
44103;BME280;29769;42.178;24.742;2023-06-14T04:40:43;99302.22;;;20.08;100.00
44103;BME280;29769;42.178;24.742;2023-06-14T04:43:31;99299.91;;;20.02;100.00
44103;BME280;29769;42.178;24.742;2023-06-14T04:46:16;99305.28;;;20.16;100.00
44103;BME280;29769;42.178;24.742;2023-06-14T04:49:01;99305.69;;;20.24;100.00
44103;BME280;29769;42.178;24.742;2023-06-14T04:51:46;99307.34;;;20.40;100.00
44103;BME280;29769;42.178;24.742;2023-06-14T04:54:36;99307.34;;;20.55;100.00
44103;BME280;29769;42.178;24.742;2023-06-14T04:57:22;99307.34;;;20.69;100.00
44103;BME280;29769;42.178;24.742;2023-06-14T05:00:08;99320.81;;;20.67;100.00
44103;BME280;29769;42.178;24.742;2023-06-14T05:02:55;99323.88;;;20.75;100.00
44103;BME280;29769;42.178;24.742;2023-06-14T05:05:41;99318.25;;;20.80;100.00
44103;BME280;29769;42.178;24.742;2023-06-14T05:08:26;99328.44;;;20.73;100.00
44103;BME280;29769;42.178;24.742;2023-06-14T05:11:11;99324.63;;;20.92;100.00
44103;BME280;29769;42.178;24.742;2023-06-14T05:13:56;99322.97;;;21.03;100.00
44103;BME280;29769;42.178;24.742;2023-06-14T05:16:42;99326.06;;;20.97;100.00
44103;BME280;29769;42.178;24.742;2023-06-14T05:19:27;99329.69;;;20.96;100.00
44103;BME280;29769;42.178;24.742;2023-06-14T05:22:11;99333.88;;;21.00;100.00
44103;BME280;29769;42.178;24.742;2023-06-14T05:24:56;99332.72;;;21.18;100.00
44103;BME280;29769;42.178;24.742;2023-06-14T05:27:40;99335.88;;;21.25;100.00
44103;BME280;29769;42.178;24.742;2023-06-14T05:30:26;99343.44;;;21.18;100.00
44103;BME280;29769;42.178;24.742;2023-06-14T05:33:10;99350.00;;;21.27;100.00
44103;BME280;29769;42.178;24.742;2023-06-14T05:35:55;99346.31;;;21.56;100.00
44103;BME280;29769;42.178;24.742;2023-06-14T05:38:39;99341.31;;;21.64;100.00
44103;BME280;29769;42.178;24.742;2023-06-14T05:41:27;99351.94;;;21.93;100.00
44103;BME280;29769;42.178;24.742;2023-06-14T05:44:12;99351.56;;;21.85;100.00
44103;BME280;29769;42.178;24.742;2023-06-14T05:46:56;99354.56;;;21.80;100.00
44103;BME280;29769;42.178;24.742;2023-06-14T05:49:41;99358.59;;;22.00;100.00
44103;BME280;29769;42.178;24.742;2023-06-14T05:52:26;99354.56;;;22.20;100.00
44103;BME280;29769;42.178;24.742;2023-06-14T05:55:11;99364.34;;;22.33;100.00
44103;BME280;29769;42.178;24.742;2023-06-14T05:57:56;99365.84;;;22.37;100.00
44103;BME280;29769;42.178;24.742;2023-06-14T06:00:41;99367.31;;;22.16;100.00
44103;BME280;29769;42.178;24.742;2023-06-14T06:03:25;99365.13;;;22.48;100.00
44103;BME280;29769;42.178;24.742;2023-06-14T06:06:13;99363.09;;;22.51;100.00
44103;BME280;29769;42.178;24.742;2023-06-14T06:08:58;99358.81;;;22.61;100.00
44103;BME280;29769;42.178;24.742;2023-06-14T06:11:42;99353.63;;;22.58;100.00
44103;BME280;29769;42.178;24.742;2023-06-14T06:14:27;99358.72;;;22.88;100.00
44103;BME280;29769;42.178;24.742;2023-06-14T06:17:11;99367.50;;;23.03;100.00
44103;BME280;29769;42.178;24.742;2023-06-14T06:19:56;99370.56;;;23.22;100.00
44103;BME280;29769;42.178;24.742;2023-06-14T06:22:40;99364.53;;;23.44;100.00
44103;BME280;29769;42.178;24.742;2023-06-14T06:25:25;99360.34;;;23.53;100.00
44103;BME280;29769;42.178;24.742;2023-06-14T06:28:11;99363.50;;;23.58;100.00
44103;BME280;29769;42.178;24.742;2023-06-14T06:30:55;99366.91;;;23.23;100.00
44103;BME280;29769;42.178;24.742;2023-06-14T06:33:40;99365.16;;;23.71;100.00
44103;BME280;29769;42.178;24.742;2023-06-14T06:36:25;99372.44;;;24.29;100.00
44103;BME280;29769;42.178;24.742;2023-06-14T06:39:09;99372.53;;;24.74;100.00
44103;BME280;29769;42.178;24.742;2023-06-14T06:41:54;99377.84;;;25.09;100.00
44103;BME280;29769;42.178;24.742;2023-06-14T06:44:49;99375.53;;;25.38;100.00
44103;BME280;29769;42.178;24.742;2023-06-14T06:47:34;99380.16;;;25.47;100.00
44103;BME280;29769;42.178;24.742;2023-06-14T06:50:18;99376.09;;;25.63;100.00
44103;BME280;29769;42.178;24.742;2023-06-14T06:53:04;99370.66;;;26.18;100.00
44103;BME280;29769;42.178;24.742;2023-06-14T06:55:49;99372.94;;;26.54;100.00
44103;BME280;29769;42.178;24.742;2023-06-14T06:58:34;99376.31;;;26.88;100.00
44103;BME280;29769;42.178;24.742;2023-06-14T07:01:18;99372.50;;;27.30;100.00
44103;BME280;29769;42.178;24.742;2023-06-14T07:04:03;99366.53;;;27.57;100.00
44103;BME280;29769;42.178;24.742;2023-06-14T07:06:48;99377.69;;;27.43;100.00
44103;BME280;29769;42.178;24.742;2023-06-14T07:09:33;99381.28;;;27.53;100.00
44103;BME280;29769;42.178;24.742;2023-06-14T07:12:17;99381.91;;;27.66;100.00
44103;BME280;29769;42.178;24.742;2023-06-14T07:15:02;99366.81;;;27.64;100.00
44103;BME280;29769;42.178;24.742;2023-06-14T07:17:48;99371.00;;;27.87;100.00
44103;BME280;29769;42.178;24.742;2023-06-14T07:20:32;99364.31;;;27.91;92.69
44103;BME280;29769;42.178;24.742;2023-06-14T07:23:17;99369.47;;;28.13;79.34
44103;BME280;29769;42.178;24.742;2023-06-14T07:26:02;99366.44;;;27.97;77.30
44103;BME280;29769;42.178;24.742;2023-06-14T07:28:47;99368.59;;;28.13;77.12
44103;BME280;29769;42.178;24.742;2023-06-14T07:31:33;99366.22;;;28.29;71.55
44103;BME280;29769;42.178;24.742;2023-06-14T07:34:17;99358.94;;;28.29;70.19
44103;BME280;29769;42.178;24.742;2023-06-14T07:37:02;99370.88;;;28.56;67.50
44103;BME280;29769;42.178;24.742;2023-06-14T07:39:47;99362.03;;;28.73;68.69
44103;BME280;29769;42.178;24.742;2023-06-14T07:42:33;99362.47;;;28.49;68.94
44103;BME280;29769;42.178;24.742;2023-06-14T07:45:18;99356.78;;;28.52;67.91
44103;BME280;29769;42.178;24.742;2023-06-14T07:48:03;99361.91;;;28.75;68.26
44103;BME280;29769;42.178;24.742;2023-06-14T07:50:48;99361.53;;;28.97;65.55
44103;BME280;29769;42.178;24.742;2023-06-14T07:53:33;99371.09;;;28.91;66.58
44103;BME280;29769;42.178;24.742;2023-06-14T07:56:18;99361.69;;;28.86;64.67
44103;BME280;29769;42.178;24.742;2023-06-14T07:59:02;99359.75;;;29.15;63.86
44103;BME280;29769;42.178;24.742;2023-06-14T08:01:47;99360.53;;;29.35;61.67
44103;BME280;29769;42.178;24.742;2023-06-14T08:04:32;99365.22;;;29.42;62.36
44103;BME280;29769;42.178;24.742;2023-06-14T08:07:17;99368.38;;;29.28;62.81
44103;BME280;29769;42.178;24.742;2023-06-14T08:10:02;99366.31;;;28.56;65.73
44103;BME280;29769;42.178;24.742;2023-06-14T08:12:46;99367.50;;;29.00;66.38
44103;BME280;29769;42.178;24.742;2023-06-14T08:15:32;99364.00;;;29.54;64.07
44103;BME280;29769;42.178;24.742;2023-06-14T08:18:18;99380.09;;;29.83;62.59
44103;BME280;29769;42.178;24.742;2023-06-14T08:21:02;99372.69;;;30.38;60.29
44103;BME280;29769;42.178;24.742;2023-06-14T08:23:47;99381.22;;;30.61;58.77
44103;BME280;29769;42.178;24.742;2023-06-14T08:26:32;99377.72;;;31.20;55.72
44103;BME280;29769;42.178;24.742;2023-06-14T08:29:17;99382.31;;;31.20;55.86
44103;BME280;29769;42.178;24.742;2023-06-14T08:32:01;99384.41;;;31.68;55.38
44103;BME280;29769;42.178;24.742;2023-06-14T08:34:46;99388.31;;;31.65;53.71
44103;BME280;29769;42.178;24.742;2023-06-14T08:37:30;99382.13;;;32.05;51.27
44103;BME280;29769;42.178;24.742;2023-06-14T08:40:19;99385.13;;;31.86;51.83
44103;BME280;29769;42.178;24.742;2023-06-14T08:43:04;99391.94;;;31.82;52.93
44103;BME280;29769;42.178;24.742;2023-06-14T08:45:49;99396.31;;;32.33;50.88
44103;BME280;29769;42.178;24.742;2023-06-14T08:48:38;99391.19;;;32.30;50.50
44103;BME280;29769;42.178;24.742;2023-06-14T08:51:23;99390.91;;;32.66;49.82
44103;BME280;29769;42.178;24.742;2023-06-14T08:54:11;99393.38;;;33.24;47.93
44103;BME280;29769;42.178;24.742;2023-06-14T08:56:57;99389.41;;;33.42;47.89
44103;BME280;29769;42.178;24.742;2023-06-14T08:59:45;99389.16;;;32.48;48.11
44103;BME280;29769;42.178;24.742;2023-06-14T09:02:30;99382.53;;;32.43;47.14
44103;BME280;29769;42.178;24.742;2023-06-14T09:05:15;99385.78;;;32.87;46.98
44103;BME280;29769;42.178;24.742;2023-06-14T09:08:02;99382.50;;;32.99;46.84
44103;BME280;29769;42.178;24.742;2023-06-14T09:10:47;99378.09;;;32.58;47.57
44103;BME280;29769;42.178;24.742;2023-06-14T09:13:31;99370.63;;;32.52;48.12
44103;BME280;29769;42.178;24.742;2023-06-14T09:16:16;99373.84;;;32.55;48.18
44103;BME280;29769;42.178;24.742;2023-06-14T09:19:00;99375.38;;;32.82;47.88
44103;BME280;29769;42.178;24.742;2023-06-14T09:21:46;99369.25;;;32.80;46.05
44103;BME280;29769;42.178;24.742;2023-06-14T09:24:31;99367.44;;;31.74;49.07
44103;BME280;29769;42.178;24.742;2023-06-14T09:27:16;99368.88;;;32.02;48.15
44103;BME280;29769;42.178;24.742;2023-06-14T09:30:01;99368.03;;;31.18;49.63
44103;BME280;29769;42.178;24.742;2023-06-14T09:32:46;99356.91;;;31.37;49.78
44103;BME280;29769;42.178;24.742;2023-06-14T09:35:31;99354.34;;;31.77;49.46
44103;BME280;29769;42.178;24.742;2023-06-14T09:38:16;99356.91;;;31.79;49.66
44103;BME280;29769;42.178;24.742;2023-06-14T09:41:00;99359.13;;;31.84;48.27
44103;BME280;29769;42.178;24.742;2023-06-14T09:43:47;99356.72;;;31.81;48.56
44103;BME280;29769;42.178;24.742;2023-06-14T09:46:34;99354.97;;;31.21;50.60
44103;BME280;29769;42.178;24.742;2023-06-14T09:49:19;99354.47;;;31.26;49.26
44103;BME280;29769;42.178;24.742;2023-06-14T09:52:05;99353.38;;;31.03;49.88
44103;BME280;29769;42.178;24.742;2023-06-14T09:54:50;99355.75;;;31.06;50.39
44103;BME280;29769;42.178;24.742;2023-06-14T09:57:35;99350.56;;;30.69;50.66
44103;BME280;29769;42.178;24.742;2023-06-14T10:00:20;99347.16;;;30.92;50.90
44103;BME280;29769;42.178;24.742;2023-06-14T10:03:11;99339.38;;;30.72;52.46
44103;BME280;29769;42.178;24.742;2023-06-14T10:05:57;99336.91;;;30.86;51.78
44103;BME280;29769;42.178;24.742;2023-06-14T10:08:45;99339.16;;;30.65;52.66
44103;BME280;29769;42.178;24.742;2023-06-14T10:11:30;99339.44;;;31.06;51.73
44103;BME280;29769;42.178;24.742;2023-06-14T10:14:15;99340.38;;;31.30;49.85
44103;BME280;29769;42.178;24.742;2023-06-14T10:17:10;99328.34;;;31.75;48.11
44103;BME280;29769;42.178;24.742;2023-06-14T10:20:21;99322.78;;;32.09;48.94
44103;BME280;29769;42.178;24.742;2023-06-14T10:23:10;99334.72;;;32.73;47.01
44103;BME280;29769;42.178;24.742;2023-06-14T10:25:57;99335.50;;;32.89;47.13
44103;BME280;29769;42.178;24.742;2023-06-14T10:28:44;99328.56;;;31.98;48.14
44103;BME280;29769;42.178;24.742;2023-06-14T10:31:40;99330.53;;;31.63;48.90
44103;BME280;29769;42.178;24.742;2023-06-14T10:34:26;99326.03;;;31.12;49.76
44103;BME280;29769;42.178;24.742;2023-06-14T10:37:11;99319.66;;;31.71;48.56
44103;BME280;29769;42.178;24.742;2023-06-14T10:39:56;99324.44;;;31.86;47.00
44103;BME280;29769;42.178;24.742;2023-06-14T10:42:40;99321.25;;;32.06;47.01
44103;BME280;29769;42.178;24.742;2023-06-14T10:45:35;99326.19;;;33.39;44.80
44103;BME280;29769;42.178;24.742;2023-06-14T10:48:29;99318.81;;;34.32;40.59
44103;BME280;29769;42.178;24.742;2023-06-14T10:51:17;99315.47;;;35.11;39.90
44103;BME280;29769;42.178;24.742;2023-06-14T10:54:05;99306.38;;;35.70;38.71
44103;BME280;29769;42.178;24.742;2023-06-14T10:56:55;99311.88;;;36.33;37.34
44103;BME280;29769;42.178;24.742;2023-06-14T10:59:40;99301.84;;;36.19;37.55
44103;BME280;29769;42.178;24.742;2023-06-14T11:05:29;99300.41;;;34.26;40.73
44103;BME280;29769;42.178;24.742;2023-06-14T11:11:05;99294.41;;;34.68;40.82
44103;BME280;29769;42.178;24.742;2023-06-14T11:13:50;99297.00;;;34.84;40.03
44103;BME280;29769;42.178;24.742;2023-06-14T11:16:35;99291.63;;;33.62;42.16
44103;BME280;29769;42.178;24.742;2023-06-14T11:19:21;99300.50;;;32.78;44.17
44103;BME280;29769;42.178;24.742;2023-06-14T11:22:06;99299.88;;;32.19;45.18
44103;BME280;29769;42.178;24.742;2023-06-14T11:24:50;99292.69;;;32.35;44.59
44103;BME280;29769;42.178;24.742;2023-06-14T11:27:35;99289.53;;;33.02;43.34
44103;BME280;29769;42.178;24.742;2023-06-14T11:30:20;99284.34;;;34.31;41.72
44103;BME280;29769;42.178;24.742;2023-06-14T11:33:09;99282.66;;;35.98;38.01
44103;BME280;29769;42.178;24.742;2023-06-14T11:35:53;99283.22;;;37.19;36.96
44103;BME280;29769;42.178;24.742;2023-06-14T11:38:38;99277.56;;;35.74;38.19
44103;BME280;29769;42.178;24.742;2023-06-14T11:41:24;99278.78;;;36.56;38.27
44103;BME280;29769;42.178;24.742;2023-06-14T11:44:09;99278.53;;;36.30;37.54
44103;BME280;29769;42.178;24.742;2023-06-14T11:46:54;99274.69;;;37.08;36.25
44103;BME280;29769;42.178;24.742;2023-06-14T11:49:41;99263.31;;;35.42;37.88
44103;BME280;29769;42.178;24.742;2023-06-14T11:52:26;99271.91;;;35.24;38.64
44103;BME280;29769;42.178;24.742;2023-06-14T11:55:10;99260.84;;;35.47;38.88
44103;BME280;29769;42.178;24.742;2023-06-14T11:57:56;99254.38;;;35.55;39.02
44103;BME280;29769;42.178;24.742;2023-06-14T12:00:41;99260.72;;;36.40;37.41
44103;BME280;29769;42.178;24.742;2023-06-14T12:03:26;99251.78;;;37.22;34.59
44103;BME280;29769;42.178;24.742;2023-06-14T12:06:13;99252.69;;;35.54;37.90
44103;BME280;29769;42.178;24.742;2023-06-14T12:08:58;99258.13;;;33.99;38.68
44103;BME280;29769;42.178;24.742;2023-06-14T12:11:43;99253.69;;;34.58;40.92
44103;BME280;29769;42.178;24.742;2023-06-14T12:14:28;99257.72;;;34.62;38.85
44103;BME280;29769;42.178;24.742;2023-06-14T12:17:13;99252.56;;;33.92;40.05
44103;BME280;29769;42.178;24.742;2023-06-14T12:19:57;99242.13;;;35.00;38.96
44103;BME280;29769;42.178;24.742;2023-06-14T12:25:37;99241.94;;;33.52;41.91
44103;BME280;29769;42.178;24.742;2023-06-14T12:28:23;99239.41;;;32.48;44.10
44103;BME280;29769;42.178;24.742;2023-06-14T12:31:07;99232.75;;;31.54;47.08
44103;BME280;29769;42.178;24.742;2023-06-14T12:33:53;99226.72;;;31.18;48.92
44103;BME280;29769;42.178;24.742;2023-06-14T12:36:37;99234.81;;;30.68;50.37
44103;BME280;29769;42.178;24.742;2023-06-14T12:39:28;99232.31;;;30.23;51.85
44103;BME280;29769;42.178;24.742;2023-06-14T12:42:15;99226.06;;;31.16;49.94
44103;BME280;29769;42.178;24.742;2023-06-14T12:45:00;99210.56;;;31.08;50.39
44103;BME280;29769;42.178;24.742;2023-06-14T12:47:45;99212.50;;;30.90;49.64
44103;BME280;29769;42.178;24.742;2023-06-14T12:50:30;99204.44;;;31.97;47.58
44103;BME280;29769;42.178;24.742;2023-06-14T12:53:14;99204.06;;;30.59;51.46
44103;BME280;29769;42.178;24.742;2023-06-14T12:55:59;99199.06;;;31.30;50.04
44103;BME280;29769;42.178;24.742;2023-06-14T12:58:44;99199.78;;;30.90;49.78
44103;BME280;29769;42.178;24.742;2023-06-14T13:01:28;99193.72;;;31.87;48.75
44103;BME280;29769;42.178;24.742;2023-06-14T13:04:13;99197.56;;;31.44;48.24
44103;BME280;29769;42.178;24.742;2023-06-14T13:06:57;99199.47;;;32.08;47.12
44103;BME280;29769;42.178;24.742;2023-06-14T13:09:43;99202.41;;;30.66;49.84
44103;BME280;29769;42.178;24.742;2023-06-14T13:12:27;99199.00;;;30.98;49.64
44103;BME280;29769;42.178;24.742;2023-06-14T13:15:12;99209.38;;;31.93;46.77
44103;BME280;29769;42.178;24.742;2023-06-14T13:17:57;99196.88;;;32.55;45.42
44103;BME280;29769;42.178;24.742;2023-06-14T13:20:41;99203.75;;;31.95;45.56
44103;BME280;29769;42.178;24.742;2023-06-14T13:23:26;99202.91;;;31.70;46.09
44103;BME280;29769;42.178;24.742;2023-06-14T13:26:10;99181.13;;;30.96;48.02
44103;BME280;29769;42.178;24.742;2023-06-14T13:28:56;99189.81;;;30.57;50.85
44103;BME280;29769;42.178;24.742;2023-06-14T13:31:41;99189.53;;;29.91;51.57
44103;BME280;29769;42.178;24.742;2023-06-14T13:34:25;99178.44;;;30.28;51.60
44103;BME280;29769;42.178;24.742;2023-06-14T13:37:10;99173.16;;;31.60;48.19
44103;BME280;29769;42.178;24.742;2023-06-14T13:39:54;99181.16;;;31.78;46.81
44103;BME280;29769;42.178;24.742;2023-06-14T13:42:40;99179.28;;;31.62;49.51
44103;BME280;29769;42.178;24.742;2023-06-14T13:45:24;99174.53;;;30.04;54.39
44103;BME280;29769;42.178;24.742;2023-06-14T13:48:09;99175.78;;;29.22;56.70
44103;BME280;29769;42.178;24.742;2023-06-14T13:50:53;99174.25;;;29.01;59.04
44103;BME280;29769;42.178;24.742;2023-06-14T13:53:38;99169.88;;;28.91;59.29
44103;BME280;29769;42.178;24.742;2023-06-14T13:56:23;99167.06;;;28.09;61.33
44103;BME280;29769;42.178;24.742;2023-06-14T13:59:08;99181.44;;;28.09;63.88
44103;BME280;29769;42.178;24.742;2023-06-14T14:01:53;99177.03;;;28.18;64.61
44103;BME280;29769;42.178;24.742;2023-06-14T14:04:39;99169.13;;;27.78;65.33
44103;BME280;29769;42.178;24.742;2023-06-14T14:07:24;99166.44;;;27.49;64.40
44103;BME280;29769;42.178;24.742;2023-06-14T14:10:09;99166.97;;;27.81;63.53
44103;BME280;29769;42.178;24.742;2023-06-14T14:12:55;99173.00;;;27.75;61.52
44103;BME280;29769;42.178;24.742;2023-06-14T14:15:39;99161.47;;;28.39;59.59
44103;BME280;29769;42.178;24.742;2023-06-14T14:18:24;99170.16;;;29.15;56.54
44103;BME280;29769;42.178;24.742;2023-06-14T14:21:08;99168.75;;;29.82;54.50
44103;BME280;29769;42.178;24.742;2023-06-14T14:23:54;99158.16;;;30.14;53.38
44103;BME280;29769;42.178;24.742;2023-06-14T14:26:39;99161.50;;;30.60;51.97
44103;BME280;29769;42.178;24.742;2023-06-14T14:29:24;99167.69;;;29.75;53.57
44103;BME280;29769;42.178;24.742;2023-06-14T14:32:08;99174.59;;;29.69;54.58
44103;BME280;29769;42.178;24.742;2023-06-14T14:34:58;99171.47;;;29.82;53.48
44103;BME280;29769;42.178;24.742;2023-06-14T14:37:43;99159.56;;;29.39;53.95